sensor_id;sensor_type;location;lat;lon;timestamp;pressure;altitude;pressure_sealevel;temperature;humidity
72124;BME280;63818;37.134;-8.548;2023-02-24T00:02:17;101065.7;;;13.3;47.8
72124;BME280;63818;37.134;-8.548;2023-02-24T00:07:03;101063.1;;;13.4;47.7
72124;BME280;63818;37.134;-8.548;2023-02-24T00:11:52;101061.0;;;13.4;47.3
72124;BME280;63818;37.134;-8.548;2023-02-24T00:16:39;101057.0;;;13.2;47.6
72124;BME280;63818;37.134;-8.548;2023-02-24T00:21:26;101062.2;;;13.1;47.6
72124;BME280;63818;37.134;-8.548;2023-02-24T00:26:14;101045.2;;;13.1;47.4
72124;BME280;63818;37.134;-8.548;2023-02-24T00:31:09;101050.0;;;13.1;47.2
72124;BME280;63818;37.134;-8.548;2023-02-24T00:36:10;101042.0;;;12.9;47.2
72124;BME280;63818;37.134;-8.548;2023-02-24T00:40:56;101037.9;;;12.9;47.3
72124;BME280;63818;37.134;-8.548;2023-02-24T00:45:44;101036.6;;;13.0;46.9
72124;BME280;63818;37.134;-8.548;2023-02-24T00:50:30;101033.5;;;13.0;46.8
72124;BME280;63818;37.134;-8.548;2023-02-24T00:55:16;101024.3;;;12.9;46.5
72124;BME280;63818;37.134;-8.548;2023-02-24T01:00:03;101018.9;;;12.9;46.7
72124;BME280;63818;37.134;-8.548;2023-02-24T01:04:49;101031.1;;;12.9;46.9
72124;BME280;63818;37.134;-8.548;2023-02-24T01:09:38;101023.6;;;12.9;46.6
72124;BME280;63818;37.134;-8.548;2023-02-24T01:14:28;101013.9;;;12.9;46.5
72124;BME280;63818;37.134;-8.548;2023-02-24T01:19:13;101008.6;;;13.0;46.3
72124;BME280;63818;37.134;-8.548;2023-02-24T01:23:59;101011.0;;;13.0;46.2
72124;BME280;63818;37.134;-8.548;2023-02-24T01:28:46;100993.3;;;13.0;46.6
72124;BME280;63818;37.134;-8.548;2023-02-24T01:33:33;101004.8;;;12.9;46.7
72124;BME280;63818;37.134;-8.548;2023-02-24T01:38:20;100992.1;;;13.0;46.3
72124;BME280;63818;37.134;-8.548;2023-02-24T01:43:08;100999.4;;;13.0;46.5
72124;BME280;63818;37.134;-8.548;2023-02-24T01:48:00;100991.0;;;13.0;46.5
72124;BME280;63818;37.134;-8.548;2023-02-24T01:52:49;100984.0;;;13.0;46.6
72124;BME280;63818;37.134;-8.548;2023-02-24T01:57:38;100986.6;;;12.9;46.8
72124;BME280;63818;37.134;-8.548;2023-02-24T02:02:24;100979.7;;;12.8;47.0
72124;BME280;63818;37.134;-8.548;2023-02-24T02:07:13;100969.8;;;12.7;47.2
72124;BME280;63818;37.134;-8.548;2023-02-24T02:12:00;100960.3;;;12.8;47.6
72124;BME280;63818;37.134;-8.548;2023-02-24T02:17:02;100957.5;;;12.7;47.4
72124;BME280;63818;37.134;-8.548;2023-02-24T02:22:34;100955.4;;;12.7;47.7
72124;BME280;63818;37.134;-8.548;2023-02-24T02:29:38;100947.3;;;12.7;47.9
72124;BME280;63818;37.134;-8.548;2023-02-24T02:34:39;100933.5;;;12.7;48.0
72124;BME280;63818;37.134;-8.548;2023-02-24T02:39:41;100939.9;;;12.7;48.4
72124;BME280;63818;37.134;-8.548;2023-02-24T02:44:36;100928.6;;;12.6;48.3
72124;BME280;63818;37.134;-8.548;2023-02-24T02:49:29;100918.9;;;12.6;48.2
72124;BME280;63818;37.134;-8.548;2023-02-24T02:54:21;100908.6;;;12.6;48.5
72124;BME280;63818;37.134;-8.548;2023-02-24T02:59:10;100913.0;;;12.5;48.9
72124;BME280;63818;37.134;-8.548;2023-02-24T03:04:02;100896.7;;;12.5;49.4
72124;BME280;63818;37.134;-8.548;2023-02-24T03:08:53;100903.1;;;12.4;49.5
72124;BME280;63818;37.134;-8.548;2023-02-24T03:13:47;100903.9;;;12.4;50.1
72124;BME280;63818;37.134;-8.548;2023-02-24T03:18:38;100894.0;;;12.4;49.9
72124;BME280;63818;37.134;-8.548;2023-02-24T03:23:27;100897.3;;;12.4;50.1
72124;BME280;63818;37.134;-8.548;2023-02-24T03:28:18;100894.8;;;12.3;50.7
72124;BME280;63818;37.134;-8.548;2023-02-24T03:33:11;100893.7;;;12.2;50.9
72124;BME280;63818;37.134;-8.548;2023-02-24T03:37:59;100890.7;;;12.3;51.3
72124;BME280;63818;37.134;-8.548;2023-02-24T03:42:48;100884.3;;;12.2;51.5
72124;BME280;63818;37.134;-8.548;2023-02-24T03:47:36;100884.0;;;12.2;51.5
72124;BME280;63818;37.134;-8.548;2023-02-24T03:52:28;100886.3;;;12.2;51.9
72124;BME280;63818;37.134;-8.548;2023-02-24T03:57:24;100891.4;;;12.2;51.6
72124;BME280;63818;37.134;-8.548;2023-02-24T04:02:20;100896.0;;;12.2;51.7
72124;BME280;63818;37.134;-8.548;2023-02-24T04:07:14;100893.5;;;12.2;51.6
72124;BME280;63818;37.134;-8.548;2023-02-24T04:12:07;100886.3;;;12.2;51.8
72124;BME280;63818;37.134;-8.548;2023-02-24T04:16:56;100892.5;;;12.2;51.9
72124;BME280;63818;37.134;-8.548;2023-02-24T04:21:45;100892.0;;;12.1;52.2
72124;BME280;63818;37.134;-8.548;2023-02-24T04:26:33;100894.2;;;12.0;52.3
72124;BME280;63818;37.134;-8.548;2023-02-24T04:31:20;100896.5;;;12.0;52.2
72124;BME280;63818;37.134;-8.548;2023-02-24T04:36:07;100890.3;;;12.0;52.7
72124;BME280;63818;37.134;-8.548;2023-02-24T04:40:53;100893.0;;;12.0;52.5
72124;BME280;63818;37.134;-8.548;2023-02-24T04:45:39;100902.5;;;12.0;52.4
72124;BME280;63818;37.134;-8.548;2023-02-24T04:50:28;100896.6;;;12.0;52.5
72124;BME280;63818;37.134;-8.548;2023-02-24T04:55:14;100897.9;;;11.9;52.4
72124;BME280;63818;37.134;-8.548;2023-02-24T05:00:01;100905.9;;;11.9;52.3
72124;BME280;63818;37.134;-8.548;2023-02-24T05:04:46;100898.3;;;11.8;52.6
72124;BME280;63818;37.134;-8.548;2023-02-24T05:09:32;100896.9;;;11.9;52.5
72124;BME280;63818;37.134;-8.548;2023-02-24T05:14:19;100899.1;;;11.9;53.0
72124;BME280;63818;37.134;-8.548;2023-02-24T05:19:05;100910.5;;;11.9;52.9
72124;BME280;63818;37.134;-8.548;2023-02-24T05:23:54;100908.3;;;11.8;53.2
72124;BME280;63818;37.134;-8.548;2023-02-24T05:28:44;100916.5;;;11.8;52.9
72124;BME280;63818;37.134;-8.548;2023-02-24T05:33:32;100915.5;;;11.8;53.5
72124;BME280;63818;37.134;-8.548;2023-02-24T05:38:18;100912.2;;;11.8;53.4
72124;BME280;63818;37.134;-8.548;2023-02-24T05:43:06;100912.0;;;11.7;53.2
72124;BME280;63818;37.134;-8.548;2023-02-24T05:47:52;100913.3;;;11.8;53.4
72124;BME280;63818;37.134;-8.548;2023-02-24T05:52:38;100904.5;;;11.7;53.5
72124;BME280;63818;37.134;-8.548;2023-02-24T05:57:24;100906.6;;;11.7;53.7
72124;BME280;63818;37.134;-8.548;2023-02-24T06:02:13;100904.5;;;11.6;53.6
72124;BME280;63818;37.134;-8.548;2023-02-24T06:07:00;100901.3;;;11.6;53.3
72124;BME280;63818;37.134;-8.548;2023-02-24T06:11:46;100900.9;;;11.7;53.2
72124;BME280;63818;37.134;-8.548;2023-02-24T06:16:34;100900.7;;;11.6;52.9
72124;BME280;63818;37.134;-8.548;2023-02-24T06:21:21;100894.9;;;11.6;53.0
72124;BME280;63818;37.134;-8.548;2023-02-24T06:26:09;100895.5;;;11.6;53.3
72124;BME280;63818;37.134;-8.548;2023-02-24T06:30:55;100890.7;;;11.6;53.3
72124;BME280;63818;37.134;-8.548;2023-02-24T06:35:41;100902.2;;;11.5;53.4
72124;BME280;63818;37.134;-8.548;2023-02-24T06:40:27;100909.8;;;11.4;53.5
72124;BME280;63818;37.134;-8.548;2023-02-24T06:45:15;100897.3;;;11.4;54.0
72124;BME280;63818;37.134;-8.548;2023-02-24T06:50:01;100910.2;;;11.4;54.1
72124;BME280;63818;37.134;-8.548;2023-02-24T06:54:48;100912.9;;;11.4;54.0
72124;BME280;63818;37.134;-8.548;2023-02-24T06:59:34;100917.3;;;11.4;54.3
72124;BME280;63818;37.134;-8.548;2023-02-24T07:04:19;100919.2;;;11.3;54.2
72124;BME280;63818;37.134;-8.548;2023-02-24T07:09:07;100924.1;;;11.3;54.2
72124;BME280;63818;37.134;-8.548;2023-02-24T07:13:53;100929.0;;;11.3;54.7
72124;BME280;63818;37.134;-8.548;2023-02-24T07:18:41;100927.9;;;11.3;54.7
72124;BME280;63818;37.134;-8.548;2023-02-24T07:23:27;100924.7;;;11.3;54.6
72124;BME280;63818;37.134;-8.548;2023-02-24T07:28:13;100934.0;;;11.2;55.1
72124;BME280;63818;37.134;-8.548;2023-02-24T07:32:59;100932.9;;;11.2;54.8
72124;BME280;63818;37.134;-8.548;2023-02-24T07:37:47;100933.0;;;11.2;54.9
72124;BME280;63818;37.134;-8.548;2023-02-24T07:42:33;100934.7;;;11.1;55.0
72124;BME280;63818;37.134;-8.548;2023-02-24T07:47:19;100937.8;;;11.1;55.6
72124;BME280;63818;37.134;-8.548;2023-02-24T07:52:06;100938.8;;;11.1;55.9
72124;BME280;63818;37.134;-8.548;2023-02-24T07:56:57;100950.3;;;11.2;55.5
72124;BME280;63818;37.134;-8.548;2023-02-24T08:01:45;100952.5;;;11.2;55.8
72124;BME280;63818;37.134;-8.548;2023-02-24T08:06:33;100947.4;;;11.1;56.5
72124;BME280;63818;37.134;-8.548;2023-02-24T08:11:19;100952.5;;;11.2;56.5
72124;BME280;63818;37.134;-8.548;2023-02-24T08:16:08;100949.1;;;11.3;56.3
72124;BME280;63818;37.134;-8.548;2023-02-24T08:20:56;100956.1;;;11.3;56.4
72124;BME280;63818;37.134;-8.548;2023-02-24T08:25:44;100964.1;;;11.3;56.6
72124;BME280;63818;37.134;-8.548;2023-02-24T08:30:37;100957.7;;;11.4;56.9
72124;BME280;63818;37.134;-8.548;2023-02-24T08:35:26;100968.9;;;11.4;58.0
72124;BME280;63818;37.134;-8.548;2023-02-24T08:40:15;100965.8;;;11.4;58.2
72124;BME280;63818;37.134;-8.548;2023-02-24T08:45:01;100960.3;;;11.5;58.5
72124;BME280;63818;37.134;-8.548;2023-02-24T08:49:48;100976.4;;;11.5;58.2
72124;BME280;63818;37.134;-8.548;2023-02-24T08:54:34;100973.1;;;11.5;57.8
72124;BME280;63818;37.134;-8.548;2023-02-24T08:59:24;100976.9;;;11.5;57.8
72124;BME280;63818;37.134;-8.548;2023-02-24T09:04:12;100980.3;;;11.6;57.8
72124;BME280;63818;37.134;-8.548;2023-02-24T09:09:01;100982.5;;;11.6;57.2
72124;BME280;63818;37.134;-8.548;2023-02-24T09:13:47;100982.9;;;11.7;56.7
72124;BME280;63818;37.134;-8.548;2023-02-24T09:18:35;100982.0;;;11.7;56.6
72124;BME280;63818;37.134;-8.548;2023-02-24T09:23:24;100968.2;;;11.8;56.8
72124;BME280;63818;37.134;-8.548;2023-02-24T09:28:11;100975.3;;;11.9;55.6
72124;BME280;63818;37.134;-8.548;2023-02-24T09:32:58;100974.5;;;11.9;55.1
72124;BME280;63818;37.134;-8.548;2023-02-24T09:37:44;100975.6;;;12.0;54.9
72124;BME280;63818;37.134;-8.548;2023-02-24T09:42:31;100983.3;;;12.1;54.5
72124;BME280;63818;37.134;-8.548;2023-02-24T09:47:19;100977.7;;;12.0;54.1
72124;BME280;63818;37.134;-8.548;2023-02-24T09:52:12;100986.1;;;12.1;54.2
72124;BME280;63818;37.134;-8.548;2023-02-24T09:57:00;100982.5;;;12.2;53.6
72124;BME280;63818;37.134;-8.548;2023-02-24T10:01:58;100975.7;;;12.2;52.9
72124;BME280;63818;37.134;-8.548;2023-02-24T10:06:49;100986.5;;;12.3;53.0
72124;BME280;63818;37.134;-8.548;2023-02-24T10:11:36;100980.8;;;12.3;53.0
72124;BME280;63818;37.134;-8.548;2023-02-24T10:16:23;100974.5;;;12.3;52.8
72124;BME280;63818;37.134;-8.548;2023-02-24T10:21:17;100973.2;;;12.3;52.3
72124;BME280;63818;37.134;-8.548;2023-02-24T10:26:09;100969.3;;;12.4;52.8
72124;BME280;63818;37.134;-8.548;2023-02-24T10:31:05;100976.3;;;12.4;52.6
72124;BME280;63818;37.134;-8.548;2023-02-24T10:36:05;100979.4;;;12.4;52.1
72124;BME280;63818;37.134;-8.548;2023-02-24T10:40:54;100973.9;;;12.4;52.3
72124;BME280;63818;37.134;-8.548;2023-02-24T10:45:41;100979.8;;;12.4;56.0
72124;BME280;63818;37.134;-8.548;2023-02-24T10:50:29;100970.2;;;12.3;51.8
72124;BME280;63818;37.134;-8.548;2023-02-24T10:55:24;100955.3;;;12.4;51.3
72124;BME280;63818;37.134;-8.548;2023-02-24T11:00:16;100968.5;;;12.4;54.0
72124;BME280;63818;37.134;-8.548;2023-02-24T11:05:07;100953.9;;;12.5;51.2
72124;BME280;63818;37.134;-8.548;2023-02-24T11:10:03;100950.8;;;12.5;52.8
72124;BME280;63818;37.134;-8.548;2023-02-24T11:14:53;100951.2;;;12.5;53.0
72124;BME280;63818;37.134;-8.548;2023-02-24T11:19:42;100939.5;;;12.5;49.1
72124;BME280;63818;37.134;-8.548;2023-02-24T11:24:34;100935.2;;;12.6;50.3
72124;BME280;63818;37.134;-8.548;2023-02-24T11:29:28;100937.2;;;12.7;50.2
72124;BME280;63818;37.134;-8.548;2023-02-24T11:34:22;100935.6;;;12.6;48.9
72124;BME280;63818;37.134;-8.548;2023-02-24T11:39:37;100929.4;;;12.7;48.9
72124;BME280;63818;37.134;-8.548;2023-02-24T11:44:29;100928.0;;;12.8;48.9
72124;BME280;63818;37.134;-8.548;2023-02-24T11:49:24;100930.8;;;12.8;50.2
72124;BME280;63818;37.134;-8.548;2023-02-24T11:54:14;100921.5;;;12.9;48.8
72124;BME280;63818;37.134;-8.548;2023-02-24T11:59:05;100925.1;;;12.9;49.8
72124;BME280;63818;37.134;-8.548;2023-02-24T12:03:58;100915.0;;;12.9;48.5
72124;BME280;63818;37.134;-8.548;2023-02-24T12:08:49;100920.4;;;13.0;50.0
72124;BME280;63818;37.134;-8.548;2023-02-24T12:13:39;100902.7;;;13.1;48.6
72124;BME280;63818;37.134;-8.548;2023-02-24T12:18:31;100908.0;;;13.1;47.5
72124;BME280;63818;37.134;-8.548;2023-02-24T12:23:22;100895.3;;;13.2;48.0
72124;BME280;63818;37.134;-8.548;2023-02-24T12:28:14;100897.5;;;13.3;47.3
72124;BME280;63818;37.134;-8.548;2023-02-24T12:33:13;100884.0;;;13.3;45.6
72124;BME280;63818;37.134;-8.548;2023-02-24T12:38:06;100886.7;;;13.3;45.0
72124;BME280;63818;37.134;-8.548;2023-02-24T12:43:01;100857.0;;;13.3;44.9
72124;BME280;63818;37.134;-8.548;2023-02-24T12:47:56;100867.2;;;13.3;46.5
72124;BME280;63818;37.134;-8.548;2023-02-24T12:52:52;100854.9;;;13.4;47.1
72124;BME280;63818;37.134;-8.548;2023-02-24T12:58:09;100839.5;;;13.5;46.1
72124;BME280;63818;37.134;-8.548;2023-02-24T13:03:07;100842.7;;;13.5;45.3
72124;BME280;63818;37.134;-8.548;2023-02-24T13:08:45;100842.4;;;13.4;46.0
72124;BME280;63818;37.134;-8.548;2023-02-24T13:13:39;100824.5;;;13.6;45.9
72124;BME280;63818;37.134;-8.548;2023-02-24T13:18:30;100816.8;;;13.7;44.7
72124;BME280;63818;37.134;-8.548;2023-02-24T13:23:56;100809.8;;;13.9;44.4
72124;BME280;63818;37.134;-8.548;2023-02-24T13:28:43;100793.5;;;14.0;43.6
72124;BME280;63818;37.134;-8.548;2023-02-24T13:33:50;100802.7;;;14.0;44.0
72124;BME280;63818;37.134;-8.548;2023-02-24T13:38:38;100793.9;;;13.9;44.9
72124;BME280;63818;37.134;-8.548;2023-02-24T13:43:55;100800.6;;;13.7;42.7
72124;BME280;63818;37.134;-8.548;2023-02-24T13:49:19;100778.2;;;13.8;42.6
72124;BME280;63818;37.134;-8.548;2023-02-24T13:59:54;100772.8;;;14.0;43.9
72124;BME280;63818;37.134;-8.548;2023-02-24T14:04:47;100771.6;;;13.9;42.4
72124;BME280;63818;37.134;-8.548;2023-02-24T14:16:50;100778.8;;;14.1;44.7
72124;BME280;63818;37.134;-8.548;2023-02-24T14:21:56;100774.0;;;14.2;44.6
72124;BME280;63818;37.134;-8.548;2023-02-24T14:26:46;100775.3;;;14.3;43.1
72124;BME280;63818;37.134;-8.548;2023-02-24T14:31:33;100772.0;;;14.5;43.4
72124;BME280;63818;37.134;-8.548;2023-02-24T14:36:23;100775.6;;;14.7;43.5
72124;BME280;63818;37.134;-8.548;2023-02-24T14:41:26;100758.7;;;14.8;43.7
72124;BME280;63818;37.134;-8.548;2023-02-24T14:46:13;100751.6;;;15.0;43.3
72124;BME280;63818;37.134;-8.548;2023-02-24T14:51:02;100751.4;;;15.4;43.2
72124;BME280;63818;37.134;-8.548;2023-02-24T14:55:53;100746.8;;;16.0;41.7
72124;BME280;63818;37.134;-8.548;2023-02-24T15:01:02;100734.9;;;17.5;38.7
72124;BME280;63818;37.134;-8.548;2023-02-24T15:05:54;100731.1;;;20.6;33.8
72124;BME280;63818;37.134;-8.548;2023-02-24T15:10:45;100720.7;;;22.7;31.1
72124;BME280;63818;37.134;-8.548;2023-02-24T15:15:34;100706.5;;;22.1;31.0
72124;BME280;63818;37.134;-8.548;2023-02-24T15:20:30;100726.4;;;21.4;31.7
72124;BME280;63818;37.134;-8.548;2023-02-24T15:25:42;100704.3;;;22.8;30.3
72124;BME280;63818;37.134;-8.548;2023-02-24T15:30:33;100722.7;;;22.8;29.7
72124;BME280;63818;37.134;-8.548;2023-02-24T15:37:41;100703.9;;;22.8;30.0
72124;BME280;63818;37.134;-8.548;2023-02-24T15:42:31;100717.9;;;21.6;30.7
72124;BME280;63818;37.134;-8.548;2023-02-24T15:47:43;100728.8;;;22.1;30.4
72124;BME280;63818;37.134;-8.548;2023-02-24T15:52:30;100698.3;;;22.1;30.9
72124;BME280;63818;37.134;-8.548;2023-02-24T15:57:17;100696.7;;;22.1;30.6
72124;BME280;63818;37.134;-8.548;2023-02-24T16:02:08;100701.9;;;22.6;29.8
72124;BME280;63818;37.134;-8.548;2023-02-24T16:20:58;100700.1;;;21.8;30.8
72124;BME280;63818;37.134;-8.548;2023-02-24T16:25:43;100704.8;;;21.8;30.2
72124;BME280;63818;37.134;-8.548;2023-02-24T16:30:29;100703.7;;;21.4;30.1
72124;BME280;63818;37.134;-8.548;2023-02-24T16:35:15;100721.2;;;20.1;32.5
72124;BME280;63818;37.134;-8.548;2023-02-24T16:40:01;100706.7;;;19.7;33.8
72124;BME280;63818;37.134;-8.548;2023-02-24T16:44:50;100704.7;;;19.0;35.5
72124;BME280;63818;37.134;-8.548;2023-02-24T16:49:35;100733.0;;;18.1;36.4
72124;BME280;63818;37.134;-8.548;2023-02-24T16:54:21;100725.6;;;17.7;38.1
72124;BME280;63818;37.134;-8.548;2023-02-24T16:59:06;100753.4;;;17.0;39.3
72124;BME280;63818;37.134;-8.548;2023-02-24T17:03:52;100754.8;;;16.8;39.1
72124;BME280;63818;37.134;-8.548;2023-02-24T17:08:38;100738.8;;;16.6;40.1
72124;BME280;63818;37.134;-8.548;2023-02-24T17:13:24;100752.1;;;16.2;41.4
72124;BME280;63818;37.134;-8.548;2023-02-24T17:18:10;100755.7;;;16.1;42.3
72124;BME280;63818;37.134;-8.548;2023-02-24T17:22:59;100758.4;;;16.1;42.9
72124;BME280;63818;37.134;-8.548;2023-02-24T17:27:45;100778.7;;;16.1;43.6
72124;BME280;63818;37.134;-8.548;2023-02-24T17:32:33;100787.5;;;15.7;44.2
72124;BME280;63818;37.134;-8.548;2023-02-24T17:37:19;100793.1;;;15.6;45.4
72124;BME280;63818;37.134;-8.548;2023-02-24T17:42:05;100789.5;;;15.6;45.3
72124;BME280;63818;37.134;-8.548;2023-02-24T17:46:51;100818.8;;;15.2;46.1
72124;BME280;63818;37.134;-8.548;2023-02-24T17:51:37;100790.9;;;15.0;46.8
72124;BME280;63818;37.134;-8.548;2023-02-24T17:56:23;100818.0;;;14.8;47.9
72124;BME280;63818;37.134;-8.548;2023-02-24T18:01:10;100820.1;;;14.6;48.5
72124;BME280;63818;37.134;-8.548;2023-02-24T18:06:02;100816.0;;;14.6;49.2
72124;BME280;63818;37.134;-8.548;2023-02-24T18:10:52;100818.2;;;14.6;50.1
72124;BME280;63818;37.134;-8.548;2023-02-24T18:15:39;100820.7;;;14.4;50.9
72124;BME280;63818;37.134;-8.548;2023-02-24T18:20:24;100818.2;;;14.4;51.1
72124;BME280;63818;37.134;-8.548;2023-02-24T18:25:11;100823.0;;;14.4;51.6
72124;BME280;63818;37.134;-8.548;2023-02-24T18:30:00;100821.2;;;14.4;51.5
72124;BME280;63818;37.134;-8.548;2023-02-24T18:34:46;100811.4;;;14.3;51.4
72124;BME280;63818;37.134;-8.548;2023-02-24T18:39:32;100833.7;;;14.2;51.4
72124;BME280;63818;37.134;-8.548;2023-02-24T18:44:20;100825.4;;;14.1;52.1
72124;BME280;63818;37.134;-8.548;2023-02-24T18:49:06;100832.8;;;14.1;52.4
72124;BME280;63818;37.134;-8.548;2023-02-24T18:53:56;100833.0;;;14.1;52.4
72124;BME280;63818;37.134;-8.548;2023-02-24T18:58:41;100830.1;;;14.1;52.7
72124;BME280;63818;37.134;-8.548;2023-02-24T19:03:34;100834.3;;;13.9;53.4
72124;BME280;63818;37.134;-8.548;2023-02-24T19:08:20;100833.4;;;13.9;53.6
72124;BME280;63818;37.134;-8.548;2023-02-24T19:13:12;100840.2;;;14.0;54.3
72124;BME280;63818;37.134;-8.548;2023-02-24T19:18:03;100834.5;;;14.0;54.0
72124;BME280;63818;37.134;-8.548;2023-02-24T19:22:51;100830.8;;;14.0;54.3
72124;BME280;63818;37.134;-8.548;2023-02-24T19:27:40;100832.2;;;14.1;54.4
72124;BME280;63818;37.134;-8.548;2023-02-24T19:32:28;100832.0;;;14.1;54.5
72124;BME280;63818;37.134;-8.548;2023-02-24T19:37:19;100831.4;;;14.1;54.8
72124;BME280;63818;37.134;-8.548;2023-02-24T19:42:05;100830.3;;;14.1;54.8
72124;BME280;63818;37.134;-8.548;2023-02-24T19:46:51;100838.4;;;14.0;55.1
72124;BME280;63818;37.134;-8.548;2023-02-24T19:51:37;100848.0;;;13.9;55.6
72124;BME280;63818;37.134;-8.548;2023-02-24T19:56:25;100855.9;;;13.7;56.4
72124;BME280;63818;37.134;-8.548;2023-02-24T20:01:12;100851.2;;;13.6;57.0
72124;BME280;63818;37.134;-8.548;2023-02-24T20:05:58;100856.5;;;13.4;57.9
72124;BME280;63818;37.134;-8.548;2023-02-24T20:10:45;100861.0;;;13.5;58.6
72124;BME280;63818;37.134;-8.548;2023-02-24T20:15:32;100867.7;;;13.6;58.8
72124;BME280;63818;37.134;-8.548;2023-02-24T20:20:19;100868.9;;;13.5;59.1
72124;BME280;63818;37.134;-8.548;2023-02-24T20:25:08;100863.5;;;13.4;59.2
72124;BME280;63818;37.134;-8.548;2023-02-24T20:29:55;100872.4;;;13.4;59.2
72124;BME280;63818;37.134;-8.548;2023-02-24T20:34:51;100864.3;;;13.4;59.5
72124;BME280;63818;37.134;-8.548;2023-02-24T20:39:41;100863.4;;;13.3;59.6
72124;BME280;63818;37.134;-8.548;2023-02-24T20:44:27;100868.3;;;13.3;59.8
72124;BME280;63818;37.134;-8.548;2023-02-24T20:49:16;100873.4;;;13.2;60.0
72124;BME280;63818;37.134;-8.548;2023-02-24T20:54:02;100886.3;;;13.2;60.4
72124;BME280;63818;37.134;-8.548;2023-02-24T20:58:51;100909.4;;;13.1;62.2
72124;BME280;63818;37.134;-8.548;2023-02-24T21:03:37;100895.0;;;13.1;62.9
72124;BME280;63818;37.134;-8.548;2023-02-24T21:08:23;100894.8;;;13.1;63.4
72124;BME280;63818;37.134;-8.548;2023-02-24T21:13:10;100887.7;;;12.9;64.4
72124;BME280;63818;37.134;-8.548;2023-02-24T21:17:56;100884.3;;;12.8;64.3
72124;BME280;63818;37.134;-8.548;2023-02-24T21:22:42;100880.4;;;12.9;64.9
72124;BME280;63818;37.134;-8.548;2023-02-24T21:27:28;100885.6;;;13.0;64.2
72124;BME280;63818;37.134;-8.548;2023-02-24T21:32:14;100892.0;;;13.1;64.0
72124;BME280;63818;37.134;-8.548;2023-02-24T21:37:00;100895.9;;;13.2;63.4
72124;BME280;63818;37.134;-8.548;2023-02-24T21:41:46;100883.7;;;13.1;63.7
72124;BME280;63818;37.134;-8.548;2023-02-24T21:46:34;100894.4;;;13.2;64.9
72124;BME280;63818;37.134;-8.548;2023-02-24T21:51:20;100896.3;;;13.2;65.3
72124;BME280;63818;37.134;-8.548;2023-02-24T21:56:11;100895.2;;;13.2;64.9
72124;BME280;63818;37.134;-8.548;2023-02-24T22:00:58;100913.4;;;13.2;64.7
72124;BME280;63818;37.134;-8.548;2023-02-24T22:05:47;100890.9;;;13.2;65.1
72124;BME280;63818;37.134;-8.548;2023-02-24T22:10:33;100889.8;;;13.2;65.8
72124;BME280;63818;37.134;-8.548;2023-02-24T22:15:20;100889.2;;;13.2;65.7
72124;BME280;63818;37.134;-8.548;2023-02-24T22:20:09;100878.6;;;13.2;65.1
72124;BME280;63818;37.134;-8.548;2023-02-24T22:24:55;100868.5;;;13.1;64.8
72124;BME280;63818;37.134;-8.548;2023-02-24T22:29:42;100867.2;;;13.1;64.2
72124;BME280;63818;37.134;-8.548;2023-02-24T22:34:37;100870.2;;;13.1;63.7
72124;BME280;63818;37.134;-8.548;2023-02-24T22:39:23;100882.3;;;13.1;64.7
72124;BME280;63818;37.134;-8.548;2023-02-24T22:44:12;100844.2;;;13.1;64.4
72124;BME280;63818;37.134;-8.548;2023-02-24T22:48:58;100842.5;;;12.9;63.2
72124;BME280;63818;37.134;-8.548;2023-02-24T22:53:48;100844.0;;;12.9;62.8
72124;BME280;63818;37.134;-8.548;2023-02-24T22:58:36;100860.7;;;12.8;65.4
72124;BME280;63818;37.134;-8.548;2023-02-24T23:03:24;100858.2;;;12.8;65.5
72124;BME280;63818;37.134;-8.548;2023-02-24T23:08:12;100856.1;;;12.8;65.4
72124;BME280;63818;37.134;-8.548;2023-02-24T23:13:02;100844.2;;;12.8;65.7
72124;BME280;63818;37.134;-8.548;2023-02-24T23:17:48;100847.7;;;12.7;64.9
72124;BME280;63818;37.134;-8.548;2023-02-24T23:22:36;100859.0;;;12.6;66.2
72124;BME280;63818;37.134;-8.548;2023-02-24T23:27:23;100866.3;;;12.6;66.8
72124;BME280;63818;37.134;-8.548;2023-02-24T23:32:30;100854.1;;;12.6;66.2
72124;BME280;63818;37.134;-8.548;2023-02-24T23:37:18;100863.6;;;12.4;66.5
72124;BME280;63818;37.134;-8.548;2023-02-24T23:42:05;100869.6;;;12.3;65.7
72124;BME280;63818;37.134;-8.548;2023-02-24T23:46:55;100855.9;;;12.1;66.8
72124;BME280;63818;37.134;-8.548;2023-02-24T23:51:41;100849.4;;;12.2;65.3
72124;BME280;63818;37.134;-8.548;2023-02-24T23:56:27;100833.8;;;12.3;64.7
